sensor_id;sensor_type;location;lat;lon;timestamp;P1;durP1;ratioP1;P2;durP2;ratioP2
19867;SDS011;10096;51.112;6.776;2022-08-19T00:00:51;13.60;;;12.30;;
19867;SDS011;10096;51.112;6.776;2022-08-19T00:03:17;12.25;;;11.15;;
19867;SDS011;10096;51.112;6.776;2022-08-19T00:05:45;13.27;;;12.07;;
19867;SDS011;10096;51.112;6.776;2022-08-19T00:08:11;13.52;;;12.27;;
19867;SDS011;10096;51.112;6.776;2022-08-19T00:10:38;13.00;;;11.80;;
19867;SDS011;10096;51.112;6.776;2022-08-19T00:13:08;13.40;;;12.18;;
19867;SDS011;10096;51.112;6.776;2022-08-19T00:15:35;13.48;;;12.18;;
19867;SDS011;10096;51.112;6.776;2022-08-19T00:18:02;13.05;;;11.80;;
19867;SDS011;10096;51.112;6.776;2022-08-19T00:20:29;13.73;;;12.43;;
19867;SDS011;10096;51.112;6.776;2022-08-19T00:22:56;13.68;;;12.43;;
19867;SDS011;10096;51.112;6.776;2022-08-19T00:25:23;13.63;;;12.38;;
19867;SDS011;10096;51.112;6.776;2022-08-19T00:27:50;13.23;;;12.10;;
19867;SDS011;10096;51.112;6.776;2022-08-19T00:30:18;12.68;;;11.55;;
19867;SDS011;10096;51.112;6.776;2022-08-19T00:32:45;12.85;;;11.73;;
19867;SDS011;10096;51.112;6.776;2022-08-19T00:35:12;13.75;;;12.45;;
19867;SDS011;10096;51.112;6.776;2022-08-19T00:37:40;12.85;;;11.73;;
19867;SDS011;10096;51.112;6.776;2022-08-19T00:40:08;13.93;;;12.63;;
19867;SDS011;10096;51.112;6.776;2022-08-19T00:42:37;12.57;;;11.13;;
19867;SDS011;10096;51.112;6.776;2022-08-19T00:45:08;12.48;;;11.32;;
19867;SDS011;10096;51.112;6.776;2022-08-19T00:47:38;12.10;;;11.00;;
19867;SDS011;10096;51.112;6.776;2022-08-19T00:50:05;14.20;;;12.32;;
19867;SDS011;10096;51.112;6.776;2022-08-19T00:52:36;13.88;;;12.45;;
19867;SDS011;10096;51.112;6.776;2022-08-19T00:55:07;13.57;;;12.23;;
19867;SDS011;10096;51.112;6.776;2022-08-19T00:57:38;13.68;;;12.55;;
19867;SDS011;10096;51.112;6.776;2022-08-19T01:00:07;12.93;;;11.70;;
19867;SDS011;10096;51.112;6.776;2022-08-19T01:02:39;13.35;;;12.25;;
19867;SDS011;10096;51.112;6.776;2022-08-19T01:05:08;14.55;;;12.90;;
19867;SDS011;10096;51.112;6.776;2022-08-19T01:07:38;14.85;;;13.35;;
19867;SDS011;10096;51.112;6.776;2022-08-19T01:10:07;14.40;;;13.07;;
19867;SDS011;10096;51.112;6.776;2022-08-19T01:12:37;14.10;;;12.88;;
19867;SDS011;10096;51.112;6.776;2022-08-19T01:15:06;15.75;;;12.65;;
19867;SDS011;10096;51.112;6.776;2022-08-19T01:17:36;13.68;;;12.57;;
19867;SDS011;10096;51.112;6.776;2022-08-19T01:20:07;14.73;;;13.43;;
19867;SDS011;10096;51.112;6.776;2022-08-19T01:22:40;15.82;;;14.25;;
19867;SDS011;10096;51.112;6.776;2022-08-19T01:25:11;16.40;;;14.80;;
19867;SDS011;10096;51.112;6.776;2022-08-19T01:27:39;15.60;;;14.20;;
19867;SDS011;10096;51.112;6.776;2022-08-19T01:30:09;16.13;;;14.68;;
19867;SDS011;10096;51.112;6.776;2022-08-19T01:32:38;17.20;;;15.55;;
19867;SDS011;10096;51.112;6.776;2022-08-19T01:35:05;16.80;;;15.32;;
19867;SDS011;10096;51.112;6.776;2022-08-19T01:37:42;16.15;;;14.65;;
19867;SDS011;10096;51.112;6.776;2022-08-19T01:40:14;16.52;;;15.02;;
19867;SDS011;10096;51.112;6.776;2022-08-19T01:42:41;17.80;;;16.20;;
19867;SDS011;10096;51.112;6.776;2022-08-19T01:45:08;18.15;;;16.42;;
19867;SDS011;10096;51.112;6.776;2022-08-19T01:47:36;17.23;;;15.52;;
19867;SDS011;10096;51.112;6.776;2022-08-19T01:50:04;18.95;;;16.95;;
19867;SDS011;10096;51.112;6.776;2022-08-19T01:52:34;17.63;;;15.93;;
19867;SDS011;10096;51.112;6.776;2022-08-19T01:55:03;17.15;;;15.50;;
19867;SDS011;10096;51.112;6.776;2022-08-19T01:57:31;17.23;;;15.52;;
19867;SDS011;10096;51.112;6.776;2022-08-19T01:59:58;16.50;;;15.00;;
19867;SDS011;10096;51.112;6.776;2022-08-19T02:02:28;16.30;;;14.75;;
19867;SDS011;10096;51.112;6.776;2022-08-19T02:04:55;16.30;;;14.65;;
19867;SDS011;10096;51.112;6.776;2022-08-19T02:07:22;16.25;;;14.60;;
19867;SDS011;10096;51.112;6.776;2022-08-19T02:09:49;16.25;;;14.75;;
19867;SDS011;10096;51.112;6.776;2022-08-19T02:12:17;17.83;;;16.17;;
19867;SDS011;10096;51.112;6.776;2022-08-19T02:14:47;17.67;;;15.75;;
19867;SDS011;10096;51.112;6.776;2022-08-19T02:17:14;18.95;;;17.17;;
19867;SDS011;10096;51.112;6.776;2022-08-19T02:19:41;17.88;;;16.17;;
19867;SDS011;10096;51.112;6.776;2022-08-19T02:22:08;17.05;;;15.43;;
19867;SDS011;10096;51.112;6.776;2022-08-19T02:24:34;17.95;;;16.25;;
19867;SDS011;10096;51.112;6.776;2022-08-19T02:27:01;18.05;;;16.00;;
19867;SDS011;10096;51.112;6.776;2022-08-19T02:29:30;17.63;;;15.88;;
19867;SDS011;10096;51.112;6.776;2022-08-19T02:31:58;16.95;;;15.35;;
19867;SDS011;10096;51.112;6.776;2022-08-19T02:34:24;16.77;;;15.07;;
19867;SDS011;10096;51.112;6.776;2022-08-19T02:36:51;15.57;;;13.98;;
19867;SDS011;10096;51.112;6.776;2022-08-19T02:39:18;16.08;;;14.68;;
19867;SDS011;10096;51.112;6.776;2022-08-19T02:41:44;16.55;;;15.05;;
19867;SDS011;10096;51.112;6.776;2022-08-19T02:44:11;17.85;;;16.05;;
19867;SDS011;10096;51.112;6.776;2022-08-19T02:46:39;19.63;;;17.65;;
19867;SDS011;10096;51.112;6.776;2022-08-19T02:49:07;20.52;;;18.52;;
19867;SDS011;10096;51.112;6.776;2022-08-19T02:51:34;21.33;;;19.42;;
19867;SDS011;10096;51.112;6.776;2022-08-19T02:54:04;20.60;;;18.60;;
19867;SDS011;10096;51.112;6.776;2022-08-19T02:56:33;18.92;;;17.00;;
19867;SDS011;10096;51.112;6.776;2022-08-19T02:59:01;21.60;;;19.50;;
19867;SDS011;10096;51.112;6.776;2022-08-19T03:01:28;19.98;;;18.08;;
19867;SDS011;10096;51.112;6.776;2022-08-19T03:04:00;19.15;;;17.15;;
19867;SDS011;10096;51.112;6.776;2022-08-19T03:06:30;19.08;;;17.23;;
19867;SDS011;10096;51.112;6.776;2022-08-19T03:08:57;19.77;;;17.88;;
19867;SDS011;10096;51.112;6.776;2022-08-19T03:11:27;18.92;;;17.13;;
19867;SDS011;10096;51.112;6.776;2022-08-19T03:13:55;20.85;;;17.88;;
19867;SDS011;10096;51.112;6.776;2022-08-19T03:16:24;21.25;;;18.77;;
19867;SDS011;10096;51.112;6.776;2022-08-19T03:18:53;20.63;;;18.67;;
19867;SDS011;10096;51.112;6.776;2022-08-19T03:21:26;22.35;;;20.05;;
19867;SDS011;10096;51.112;6.776;2022-08-19T03:23:55;23.02;;;20.58;;
19867;SDS011;10096;51.112;6.776;2022-08-19T03:26:23;23.50;;;21.10;;
19867;SDS011;10096;51.112;6.776;2022-08-19T03:28:50;23.73;;;21.25;;
19867;SDS011;10096;51.112;6.776;2022-08-19T03:31:18;26.90;;;23.65;;
19867;SDS011;10096;51.112;6.776;2022-08-19T03:33:47;27.88;;;24.70;;
19867;SDS011;10096;51.112;6.776;2022-08-19T03:36:16;29.80;;;26.02;;
19867;SDS011;10096;51.112;6.776;2022-08-19T03:38:47;32.03;;;27.30;;
19867;SDS011;10096;51.112;6.776;2022-08-19T03:41:19;31.35;;;27.95;;
19867;SDS011;10096;51.112;6.776;2022-08-19T03:43:47;34.60;;;29.40;;
19867;SDS011;10096;51.112;6.776;2022-08-19T03:46:15;33.10;;;29.65;;
19867;SDS011;10096;51.112;6.776;2022-08-19T03:48:45;35.20;;;30.30;;
19867;SDS011;10096;51.112;6.776;2022-08-19T03:51:16;34.78;;;31.33;;
19867;SDS011;10096;51.112;6.776;2022-08-19T03:53:46;38.35;;;32.70;;
19867;SDS011;10096;51.112;6.776;2022-08-19T03:56:14;39.22;;;34.95;;
19867;SDS011;10096;51.112;6.776;2022-08-19T03:58:41;41.35;;;36.92;;
19867;SDS011;10096;51.112;6.776;2022-08-19T04:01:09;42.05;;;37.53;;
19867;SDS011;10096;51.112;6.776;2022-08-19T04:03:39;41.08;;;36.35;;
19867;SDS011;10096;51.112;6.776;2022-08-19T04:06:10;40.30;;;36.03;;
19867;SDS011;10096;51.112;6.776;2022-08-19T04:08:38;38.38;;;34.25;;
19867;SDS011;10096;51.112;6.776;2022-08-19T04:11:08;42.10;;;37.63;;
19867;SDS011;10096;51.112;6.776;2022-08-19T04:13:36;41.08;;;36.65;;
19867;SDS011;10096;51.112;6.776;2022-08-19T04:16:03;41.28;;;36.72;;
19867;SDS011;10096;51.112;6.776;2022-08-19T04:18:31;40.83;;;36.60;;
19867;SDS011;10096;51.112;6.776;2022-08-19T04:20:58;41.97;;;37.42;;
19867;SDS011;10096;51.112;6.776;2022-08-19T04:23:25;36.75;;;32.92;;
19867;SDS011;10096;51.112;6.776;2022-08-19T04:25:53;40.33;;;34.83;;
19867;SDS011;10096;51.112;6.776;2022-08-19T04:28:22;40.75;;;36.35;;
19867;SDS011;10096;51.112;6.776;2022-08-19T04:30:50;41.88;;;37.50;;
19867;SDS011;10096;51.112;6.776;2022-08-19T04:33:19;44.20;;;39.42;;
19867;SDS011;10096;51.112;6.776;2022-08-19T04:35:47;46.55;;;41.85;;
19867;SDS011;10096;51.112;6.776;2022-08-19T04:38:15;45.58;;;40.80;;
19867;SDS011;10096;51.112;6.776;2022-08-19T04:40:45;48.25;;;42.05;;
19867;SDS011;10096;51.112;6.776;2022-08-19T04:43:34;47.40;;;41.10;;
19867;SDS011;10096;51.112;6.776;2022-08-19T04:46:04;53.92;;;47.47;;
19867;SDS011;10096;51.112;6.776;2022-08-19T04:48:31;48.67;;;43.35;;
19867;SDS011;10096;51.112;6.776;2022-08-19T04:50:58;47.97;;;42.92;;
19867;SDS011;10096;51.112;6.776;2022-08-19T04:53:26;47.42;;;42.40;;
19867;SDS011;10096;51.112;6.776;2022-08-19T04:55:54;64.05;;;46.70;;
19867;SDS011;10096;51.112;6.776;2022-08-19T04:58:21;52.13;;;46.58;;
19867;SDS011;10096;51.112;6.776;2022-08-19T05:00:50;49.05;;;43.72;;
19867;SDS011;10096;51.112;6.776;2022-08-19T05:03:17;49.25;;;43.63;;
19867;SDS011;10096;51.112;6.776;2022-08-19T05:05:45;47.03;;;42.15;;
19867;SDS011;10096;51.112;6.776;2022-08-19T05:08:13;47.50;;;42.50;;
19867;SDS011;10096;51.112;6.776;2022-08-19T05:10:45;48.20;;;42.90;;
19867;SDS011;10096;51.112;6.776;2022-08-19T05:13:12;44.58;;;39.97;;
19867;SDS011;10096;51.112;6.776;2022-08-19T05:15:40;44.35;;;39.55;;
19867;SDS011;10096;51.112;6.776;2022-08-19T05:18:08;46.63;;;41.45;;
19867;SDS011;10096;51.112;6.776;2022-08-19T05:20:53;45.92;;;41.03;;
19867;SDS011;10096;51.112;6.776;2022-08-19T05:23:38;45.97;;;41.05;;
19867;SDS011;10096;51.112;6.776;2022-08-19T05:26:05;43.95;;;39.42;;
19867;SDS011;10096;51.112;6.776;2022-08-19T05:28:40;44.45;;;39.75;;
19867;SDS011;10096;51.112;6.776;2022-08-19T05:31:09;44.10;;;39.38;;
19867;SDS011;10096;51.112;6.776;2022-08-19T05:33:38;44.25;;;39.70;;
19867;SDS011;10096;51.112;6.776;2022-08-19T05:36:05;46.47;;;41.75;;
19867;SDS011;10096;51.112;6.776;2022-08-19T05:38:33;45.22;;;40.58;;
19867;SDS011;10096;51.112;6.776;2022-08-19T05:41:05;45.20;;;40.63;;
19867;SDS011;10096;51.112;6.776;2022-08-19T05:43:33;45.13;;;40.42;;
19867;SDS011;10096;51.112;6.776;2022-08-19T05:46:00;46.20;;;41.50;;
19867;SDS011;10096;51.112;6.776;2022-08-19T05:48:29;45.05;;;40.53;;
19867;SDS011;10096;51.112;6.776;2022-08-19T05:50:58;44.65;;;40.20;;
19867;SDS011;10096;51.112;6.776;2022-08-19T05:53:29;44.15;;;39.75;;
19867;SDS011;10096;51.112;6.776;2022-08-19T05:55:56;43.88;;;39.58;;
19867;SDS011;10096;51.112;6.776;2022-08-19T05:58:23;46.67;;;42.03;;
19867;SDS011;10096;51.112;6.776;2022-08-19T06:00:52;48.85;;;43.55;;
19867;SDS011;10096;51.112;6.776;2022-08-19T06:03:19;44.67;;;40.03;;
19867;SDS011;10096;51.112;6.776;2022-08-19T06:05:46;42.17;;;38.08;;
19867;SDS011;10096;51.112;6.776;2022-08-19T06:08:14;44.28;;;39.97;;
19867;SDS011;10096;51.112;6.776;2022-08-19T06:10:43;43.88;;;39.67;;
19867;SDS011;10096;51.112;6.776;2022-08-19T06:13:10;45.45;;;40.65;;
19867;SDS011;10096;51.112;6.776;2022-08-19T06:15:36;44.60;;;40.35;;
19867;SDS011;10096;51.112;6.776;2022-08-19T06:18:03;45.35;;;41.03;;
19867;SDS011;10096;51.112;6.776;2022-08-19T06:20:31;48.78;;;40.35;;
19867;SDS011;10096;51.112;6.776;2022-08-19T06:22:58;43.47;;;39.22;;
19867;SDS011;10096;51.112;6.776;2022-08-19T06:25:26;44.83;;;40.30;;
19867;SDS011;10096;51.112;6.776;2022-08-19T06:27:53;44.75;;;40.08;;
19867;SDS011;10096;51.112;6.776;2022-08-19T06:30:20;44.60;;;40.20;;
19867;SDS011;10096;51.112;6.776;2022-08-19T06:32:47;43.60;;;39.30;;
19867;SDS011;10096;51.112;6.776;2022-08-19T06:35:14;43.28;;;38.90;;
19867;SDS011;10096;51.112;6.776;2022-08-19T06:37:42;44.13;;;39.42;;
19867;SDS011;10096;51.112;6.776;2022-08-19T06:40:09;40.67;;;36.70;;
19867;SDS011;10096;51.112;6.776;2022-08-19T06:42:38;41.00;;;36.97;;
19867;SDS011;10096;51.112;6.776;2022-08-19T06:45:06;40.65;;;36.67;;
19867;SDS011;10096;51.112;6.776;2022-08-19T06:47:33;42.17;;;38.15;;
19867;SDS011;10096;51.112;6.776;2022-08-19T06:50:01;40.38;;;36.58;;
19867;SDS011;10096;51.112;6.776;2022-08-19T06:52:29;39.05;;;35.03;;
19867;SDS011;10096;51.112;6.776;2022-08-19T06:54:57;34.42;;;31.08;;
19867;SDS011;10096;51.112;6.776;2022-08-19T06:57:31;35.92;;;32.47;;
19867;SDS011;10096;51.112;6.776;2022-08-19T06:59:59;35.67;;;31.95;;
19867;SDS011;10096;51.112;6.776;2022-08-19T07:02:26;35.85;;;32.00;;
19867;SDS011;10096;51.112;6.776;2022-08-19T07:04:53;43.38;;;32.10;;
19867;SDS011;10096;51.112;6.776;2022-08-19T07:07:22;34.05;;;30.58;;
19867;SDS011;10096;51.112;6.776;2022-08-19T07:09:50;33.97;;;30.38;;
19867;SDS011;10096;51.112;6.776;2022-08-19T07:12:18;38.85;;;34.80;;
19867;SDS011;10096;51.112;6.776;2022-08-19T07:14:45;36.28;;;32.70;;
19867;SDS011;10096;51.112;6.776;2022-08-19T07:17:15;36.15;;;32.58;;
19867;SDS011;10096;51.112;6.776;2022-08-19T07:19:43;37.95;;;34.13;;
19867;SDS011;10096;51.112;6.776;2022-08-19T07:22:10;36.15;;;32.45;;
19867;SDS011;10096;51.112;6.776;2022-08-19T07:24:37;37.95;;;34.13;;
19867;SDS011;10096;51.112;6.776;2022-08-19T07:27:05;39.92;;;35.70;;
19867;SDS011;10096;51.112;6.776;2022-08-19T07:29:35;37.20;;;33.50;;
19867;SDS011;10096;51.112;6.776;2022-08-19T07:32:03;36.25;;;32.65;;
19867;SDS011;10096;51.112;6.776;2022-08-19T07:34:32;39.67;;;35.58;;
19867;SDS011;10096;51.112;6.776;2022-08-19T07:37:03;37.75;;;33.92;;
19867;SDS011;10096;51.112;6.776;2022-08-19T07:39:31;38.15;;;34.28;;
19867;SDS011;10096;51.112;6.776;2022-08-19T07:42:00;39.33;;;35.40;;
19867;SDS011;10096;51.112;6.776;2022-08-19T07:44:31;38.78;;;34.92;;
19867;SDS011;10096;51.112;6.776;2022-08-19T07:46:58;39.90;;;35.80;;
19867;SDS011;10096;51.112;6.776;2022-08-19T07:49:26;41.92;;;37.42;;
19867;SDS011;10096;51.112;6.776;2022-08-19T07:51:56;39.67;;;35.78;;
19867;SDS011;10096;51.112;6.776;2022-08-19T07:54:26;42.42;;;37.80;;
19867;SDS011;10096;51.112;6.776;2022-08-19T07:56:55;43.72;;;39.13;;
19867;SDS011;10096;51.112;6.776;2022-08-19T07:59:23;44.67;;;39.88;;
19867;SDS011;10096;51.112;6.776;2022-08-19T08:01:50;44.22;;;39.50;;
19867;SDS011;10096;51.112;6.776;2022-08-19T08:04:19;49.67;;;44.28;;
19867;SDS011;10096;51.112;6.776;2022-08-19T08:07:05;45.58;;;40.25;;
19867;SDS011;10096;51.112;6.776;2022-08-19T08:09:51;43.60;;;39.03;;
19867;SDS011;10096;51.112;6.776;2022-08-19T08:12:19;45.45;;;40.50;;
19867;SDS011;10096;51.112;6.776;2022-08-19T08:14:50;42.63;;;38.28;;
19867;SDS011;10096;51.112;6.776;2022-08-19T08:17:20;41.88;;;36.72;;
19867;SDS011;10096;51.112;6.776;2022-08-19T08:19:49;40.33;;;36.28;;
19867;SDS011;10096;51.112;6.776;2022-08-19T08:22:18;42.53;;;38.35;;
19867;SDS011;10096;51.112;6.776;2022-08-19T08:25:04;41.33;;;37.13;;
19867;SDS011;10096;51.112;6.776;2022-08-19T08:27:35;41.58;;;37.25;;
19867;SDS011;10096;51.112;6.776;2022-08-19T08:30:04;39.13;;;35.45;;
19867;SDS011;10096;51.112;6.776;2022-08-19T08:32:34;42.42;;;37.80;;
19867;SDS011;10096;51.112;6.776;2022-08-19T08:35:02;43.20;;;38.95;;
19867;SDS011;10096;51.112;6.776;2022-08-19T08:37:31;41.50;;;37.15;;
19867;SDS011;10096;51.112;6.776;2022-08-19T08:39:58;36.72;;;32.80;;
19867;SDS011;10096;51.112;6.776;2022-08-19T08:42:29;40.63;;;36.67;;
19867;SDS011;10096;51.112;6.776;2022-08-19T08:45:00;38.03;;;34.17;;
19867;SDS011;10096;51.112;6.776;2022-08-19T08:47:31;37.20;;;33.53;;
19867;SDS011;10096;51.112;6.776;2022-08-19T08:50:02;38.15;;;34.38;;
19867;SDS011;10096;51.112;6.776;2022-08-19T08:52:35;36.72;;;33.08;;
19867;SDS011;10096;51.112;6.776;2022-08-19T08:55:08;36.13;;;32.63;;
19867;SDS011;10096;51.112;6.776;2022-08-19T08:57:42;34.13;;;30.83;;
19867;SDS011;10096;51.112;6.776;2022-08-19T09:00:21;33.38;;;29.90;;
19867;SDS011;10096;51.112;6.776;2022-08-19T09:02:57;30.92;;;27.85;;
19867;SDS011;10096;51.112;6.776;2022-08-19T09:05:30;33.53;;;29.95;;
19867;SDS011;10096;51.112;6.776;2022-08-19T09:08:10;32.65;;;29.35;;
19867;SDS011;10096;51.112;6.776;2022-08-19T09:10:44;32.22;;;29.02;;
19867;SDS011;10096;51.112;6.776;2022-08-19T09:16:14;32.90;;;29.33;;
19867;SDS011;10096;51.112;6.776;2022-08-19T09:18:46;31.42;;;28.17;;
19867;SDS011;10096;51.112;6.776;2022-08-19T09:21:16;32.38;;;29.15;;
19867;SDS011;10096;51.112;6.776;2022-08-19T09:23:45;32.03;;;28.70;;
19867;SDS011;10096;51.112;6.776;2022-08-19T09:26:14;31.80;;;27.15;;
19867;SDS011;10096;51.112;6.776;2022-08-19T09:28:46;29.60;;;26.42;;
19867;SDS011;10096;51.112;6.776;2022-08-19T09:31:15;27.70;;;24.80;;
19867;SDS011;10096;51.112;6.776;2022-08-19T09:33:44;25.30;;;22.80;;
19867;SDS011;10096;51.112;6.776;2022-08-19T09:36:12;23.52;;;21.38;;
19867;SDS011;10096;51.112;6.776;2022-08-19T09:38:41;20.48;;;18.38;;
19867;SDS011;10096;51.112;6.776;2022-08-19T09:41:11;17.63;;;15.77;;
19867;SDS011;10096;51.112;6.776;2022-08-19T09:43:40;16.92;;;15.32;;
19867;SDS011;10096;51.112;6.776;2022-08-19T09:46:08;17.08;;;15.38;;
19867;SDS011;10096;51.112;6.776;2022-08-19T09:48:35;19.27;;;17.38;;
19867;SDS011;10096;51.112;6.776;2022-08-19T09:51:03;17.55;;;15.95;;
19867;SDS011;10096;51.112;6.776;2022-08-19T09:53:31;19.20;;;17.40;;
19867;SDS011;10096;51.112;6.776;2022-08-19T09:55:58;16.90;;;15.25;;
19867;SDS011;10096;51.112;6.776;2022-08-19T09:58:27;18.92;;;17.00;;
19867;SDS011;10096;51.112;6.776;2022-08-19T10:00:55;15.85;;;14.35;;
19867;SDS011;10096;51.112;6.776;2022-08-19T10:03:24;18.00;;;13.68;;
19867;SDS011;10096;51.112;6.776;2022-08-19T10:05:52;15.15;;;13.77;;
19867;SDS011;10096;51.112;6.776;2022-08-19T10:08:20;19.58;;;15.07;;
19867;SDS011;10096;51.112;6.776;2022-08-19T10:10:50;14.02;;;12.82;;
19867;SDS011;10096;51.112;6.776;2022-08-19T10:13:19;13.25;;;11.93;;
19867;SDS011;10096;51.112;6.776;2022-08-19T10:15:51;14.02;;;12.73;;
19867;SDS011;10096;51.112;6.776;2022-08-19T10:18:20;13.85;;;12.57;;
19867;SDS011;10096;51.112;6.776;2022-08-19T10:20:48;14.75;;;13.35;;
19867;SDS011;10096;51.112;6.776;2022-08-19T10:23:17;12.43;;;11.20;;
19867;SDS011;10096;51.112;6.776;2022-08-19T10:25:45;15.07;;;13.60;;
19867;SDS011;10096;51.112;6.776;2022-08-19T10:28:12;13.70;;;12.50;;
19867;SDS011;10096;51.112;6.776;2022-08-19T10:30:40;15.73;;;14.32;;
19867;SDS011;10096;51.112;6.776;2022-08-19T10:33:08;16.60;;;15.07;;
19867;SDS011;10096;51.112;6.776;2022-08-19T10:35:35;19.08;;;16.50;;
19867;SDS011;10096;51.112;6.776;2022-08-19T10:38:04;20.30;;;18.30;;
19867;SDS011;10096;51.112;6.776;2022-08-19T10:40:31;17.92;;;16.10;;
19867;SDS011;10096;51.112;6.776;2022-08-19T10:42:58;17.27;;;15.52;;
19867;SDS011;10096;51.112;6.776;2022-08-19T10:45:25;23.27;;;19.73;;
19867;SDS011;10096;51.112;6.776;2022-08-19T10:47:53;19.25;;;17.48;;
19867;SDS011;10096;51.112;6.776;2022-08-19T10:50:21;20.13;;;18.17;;
19867;SDS011;10096;51.112;6.776;2022-08-19T10:53:06;17.35;;;15.75;;
19867;SDS011;10096;51.112;6.776;2022-08-19T10:55:34;16.20;;;14.73;;
19867;SDS011;10096;51.112;6.776;2022-08-19T10:58:19;17.02;;;15.35;;
19867;SDS011;10096;51.112;6.776;2022-08-19T11:00:51;17.70;;;16.00;;
19867;SDS011;10096;51.112;6.776;2022-08-19T11:03:19;17.27;;;15.68;;
19867;SDS011;10096;51.112;6.776;2022-08-19T11:05:51;17.23;;;15.50;;
19867;SDS011;10096;51.112;6.776;2022-08-19T11:08:27;16.10;;;14.30;;
19867;SDS011;10096;51.112;6.776;2022-08-19T11:10:57;17.75;;;16.02;;
19867;SDS011;10096;51.112;6.776;2022-08-19T11:13:28;13.63;;;12.40;;
19867;SDS011;10096;51.112;6.776;2022-08-19T11:15:56;14.35;;;12.90;;
19867;SDS011;10096;51.112;6.776;2022-08-19T11:18:24;14.25;;;12.95;;
19867;SDS011;10096;51.112;6.776;2022-08-19T11:20:52;14.95;;;13.55;;
19867;SDS011;10096;51.112;6.776;2022-08-19T11:23:19;14.55;;;13.35;;
19867;SDS011;10096;51.112;6.776;2022-08-19T11:25:49;14.18;;;12.98;;
19867;SDS011;10096;51.112;6.776;2022-08-19T11:28:16;16.13;;;13.73;;
19867;SDS011;10096;51.112;6.776;2022-08-19T11:30:43;14.90;;;13.52;;
19867;SDS011;10096;51.112;6.776;2022-08-19T11:33:10;12.95;;;11.85;;
19867;SDS011;10096;51.112;6.776;2022-08-19T11:35:38;14.00;;;12.55;;
19867;SDS011;10096;51.112;6.776;2022-08-19T11:38:07;12.07;;;11.00;;
19867;SDS011;10096;51.112;6.776;2022-08-19T11:40:34;15.00;;;13.50;;
19867;SDS011;10096;51.112;6.776;2022-08-19T11:43:01;13.30;;;11.77;;
19867;SDS011;10096;51.112;6.776;2022-08-19T11:45:29;12.75;;;11.45;;
19867;SDS011;10096;51.112;6.776;2022-08-19T11:47:56;12.95;;;11.63;;
19867;SDS011;10096;51.112;6.776;2022-08-19T11:50:23;12.07;;;10.90;;
19867;SDS011;10096;51.112;6.776;2022-08-19T11:52:53;14.30;;;12.88;;
19867;SDS011;10096;51.112;6.776;2022-08-19T11:55:22;14.63;;;11.60;;
19867;SDS011;10096;51.112;6.776;2022-08-19T11:57:49;16.00;;;12.98;;
19867;SDS011;10096;51.112;6.776;2022-08-19T12:00:16;17.38;;;13.05;;
19867;SDS011;10096;51.112;6.776;2022-08-19T12:02:43;15.73;;;13.10;;
19867;SDS011;10096;51.112;6.776;2022-08-19T12:05:10;17.38;;;14.02;;
19867;SDS011;10096;51.112;6.776;2022-08-19T12:07:37;14.48;;;12.98;;
19867;SDS011;10096;51.112;6.776;2022-08-19T12:10:08;16.30;;;14.70;;
19867;SDS011;10096;51.112;6.776;2022-08-19T12:12:37;12.80;;;11.63;;
19867;SDS011;10096;51.112;6.776;2022-08-19T12:15:07;12.70;;;11.40;;
19867;SDS011;10096;51.112;6.776;2022-08-19T12:17:36;14.75;;;12.05;;
19867;SDS011;10096;51.112;6.776;2022-08-19T12:20:03;14.05;;;10.93;;
19867;SDS011;10096;51.112;6.776;2022-08-19T12:22:31;12.25;;;10.85;;
19867;SDS011;10096;51.112;6.776;2022-08-19T12:24:59;11.10;;;10.00;;
19867;SDS011;10096;51.112;6.776;2022-08-19T12:27:26;11.07;;;10.07;;
19867;SDS011;10096;51.112;6.776;2022-08-19T12:29:55;11.18;;;10.15;;
19867;SDS011;10096;51.112;6.776;2022-08-19T12:32:21;11.75;;;10.55;;
19867;SDS011;10096;51.112;6.776;2022-08-19T12:34:49;10.38;;;9.48;;
19867;SDS011;10096;51.112;6.776;2022-08-19T12:37:16;11.07;;;9.95;;
19867;SDS011;10096;51.112;6.776;2022-08-19T12:39:43;12.00;;;9.93;;
19867;SDS011;10096;51.112;6.776;2022-08-19T12:42:12;11.20;;;9.52;;
19867;SDS011;10096;51.112;6.776;2022-08-19T12:44:41;11.02;;;9.15;;
19867;SDS011;10096;51.112;6.776;2022-08-19T12:47:11;26.02;;;13.13;;
19867;SDS011;10096;51.112;6.776;2022-08-19T12:49:39;16.73;;;10.77;;
19867;SDS011;10096;51.112;6.776;2022-08-19T12:52:07;11.57;;;8.85;;
19867;SDS011;10096;51.112;6.776;2022-08-19T12:54:35;9.30;;;8.40;;
19867;SDS011;10096;51.112;6.776;2022-08-19T12:57:04;10.10;;;9.20;;
19867;SDS011;10096;51.112;6.776;2022-08-19T12:59:32;14.05;;;11.88;;
19867;SDS011;10096;51.112;6.776;2022-08-19T13:02:01;24.55;;;11.27;;
19867;SDS011;10096;51.112;6.776;2022-08-19T13:04:31;12.63;;;8.48;;
19867;SDS011;10096;51.112;6.776;2022-08-19T13:07:00;12.65;;;10.48;;
19867;SDS011;10096;51.112;6.776;2022-08-19T13:09:26;10.45;;;9.35;;
19867;SDS011;10096;51.112;6.776;2022-08-19T13:11:53;8.57;;;7.85;;
19867;SDS011;10096;51.112;6.776;2022-08-19T13:14:21;9.55;;;8.25;;
19867;SDS011;10096;51.112;6.776;2022-08-19T13:16:48;12.27;;;8.55;;
19867;SDS011;10096;51.112;6.776;2022-08-19T13:19:15;8.52;;;7.68;;
19867;SDS011;10096;51.112;6.776;2022-08-19T13:21:48;8.25;;;7.03;;
19867;SDS011;10096;51.112;6.776;2022-08-19T13:24:16;11.63;;;10.43;;
19867;SDS011;10096;51.112;6.776;2022-08-19T13:26:43;9.95;;;8.80;;
19867;SDS011;10096;51.112;6.776;2022-08-19T13:29:09;6.97;;;6.38;;
19867;SDS011;10096;51.112;6.776;2022-08-19T13:31:53;8.18;;;7.47;;
19867;SDS011;10096;51.112;6.776;2022-08-19T13:34:38;8.88;;;8.02;;
19867;SDS011;10096;51.112;6.776;2022-08-19T13:37:06;9.45;;;8.50;;
19867;SDS011;10096;51.112;6.776;2022-08-19T13:39:33;10.00;;;7.55;;
19867;SDS011;10096;51.112;6.776;2022-08-19T13:42:01;7.35;;;6.45;;
19867;SDS011;10096;51.112;6.776;2022-08-19T13:44:29;7.90;;;7.15;;
19867;SDS011;10096;51.112;6.776;2022-08-19T13:46:59;7.10;;;6.47;;
19867;SDS011;10096;51.112;6.776;2022-08-19T13:49:30;9.48;;;6.85;;
19867;SDS011;10096;51.112;6.776;2022-08-19T13:51:57;8.30;;;6.50;;
19867;SDS011;10096;51.112;6.776;2022-08-19T13:54:26;9.20;;;6.32;;
19867;SDS011;10096;51.112;6.776;2022-08-19T13:56:53;6.40;;;5.80;;
19867;SDS011;10096;51.112;6.776;2022-08-19T13:59:21;38.85;;;19.67;;
19867;SDS011;10096;51.112;6.776;2022-08-19T14:01:47;11.05;;;7.57;;
19867;SDS011;10096;51.112;6.776;2022-08-19T14:04:14;8.32;;;7.22;;
19867;SDS011;10096;51.112;6.776;2022-08-19T14:06:41;6.65;;;6.03;;
19867;SDS011;10096;51.112;6.776;2022-08-19T14:09:08;6.85;;;6.25;;
19867;SDS011;10096;51.112;6.776;2022-08-19T14:11:37;7.32;;;6.38;;
19867;SDS011;10096;51.112;6.776;2022-08-19T14:14:03;7.60;;;6.88;;
19867;SDS011;10096;51.112;6.776;2022-08-19T14:16:30;8.18;;;7.45;;
19867;SDS011;10096;51.112;6.776;2022-08-19T14:18:57;7.68;;;5.72;;
19867;SDS011;10096;51.112;6.776;2022-08-19T14:21:24;8.35;;;5.78;;
19867;SDS011;10096;51.112;6.776;2022-08-19T14:23:52;7.07;;;6.40;;
19867;SDS011;10096;51.112;6.776;2022-08-19T14:26:20;8.77;;;7.75;;
19867;SDS011;10096;51.112;6.776;2022-08-19T14:28:51;6.85;;;6.25;;
19867;SDS011;10096;51.112;6.776;2022-08-19T14:31:19;7.35;;;6.43;;
19867;SDS011;10096;51.112;6.776;2022-08-19T14:33:49;7.20;;;6.53;;
19867;SDS011;10096;51.112;6.776;2022-08-19T14:36:18;6.57;;;5.93;;